sensor_id;sensor_type;location;lat;lon;timestamp;P1;durP1;ratioP1;P2;durP2;ratioP2
45368;SDS011;51342;55.250;37.668;2022-07-10T10:48:02;8.82;;;4.13;;
45368;SDS011;51342;55.250;37.668;2022-07-10T10:50:40;6.90;;;3.60;;
45368;SDS011;51342;55.250;37.668;2022-07-10T11:09:22;5.50;;;5.00;;
45368;SDS011;51342;55.250;37.668;2022-07-10T11:12:07;11.00;;;8.68;;
45368;SDS011;51342;55.250;37.668;2022-07-10T11:14:40;12.85;;;9.77;;
45368;SDS011;51342;55.250;37.668;2022-07-10T11:17:17;17.23;;;14.43;;
45368;SDS011;51342;55.250;37.668;2022-07-10T11:19:49;5.25;;;4.32;;
45368;SDS011;51342;55.250;37.668;2022-07-10T11:25:20;8.05;;;5.25;;
45368;SDS011;51342;55.250;37.668;2022-07-10T11:28:24;10.82;;;7.55;;
45368;SDS011;51342;55.250;37.668;2022-07-10T11:30:59;6.32;;;4.97;;
45368;SDS011;51342;55.250;37.668;2022-07-10T11:33:30;6.85;;;4.72;;
45368;SDS011;51342;55.250;37.668;2022-07-10T11:36:11;7.45;;;6.68;;
45368;SDS011;51342;55.250;37.668;2022-07-10T11:38:45;7.53;;;3.88;;
45368;SDS011;51342;55.250;37.668;2022-07-10T11:41:17;4.22;;;2.83;;
45368;SDS011;51342;55.250;37.668;2022-07-10T11:43:56;5.13;;;3.03;;
45368;SDS011;51342;55.250;37.668;2022-07-10T11:46:33;6.63;;;3.40;;
45368;SDS011;51342;55.250;37.668;2022-07-10T11:49:05;4.70;;;3.10;;
45368;SDS011;51342;55.250;37.668;2022-07-10T11:51:39;4.47;;;3.25;;
45368;SDS011;51342;55.250;37.668;2022-07-10T11:54:14;3.47;;;2.90;;
45368;SDS011;51342;55.250;37.668;2022-07-10T11:56:52;3.88;;;3.00;;
45368;SDS011;51342;55.250;37.668;2022-07-10T11:59:25;4.25;;;3.03;;
45368;SDS011;51342;55.250;37.668;2022-07-10T12:01:58;5.60;;;2.95;;
45368;SDS011;51342;55.250;37.668;2022-07-10T12:04:30;5.18;;;4.68;;
45368;SDS011;51342;55.250;37.668;2022-07-10T12:07:02;5.35;;;3.08;;
45368;SDS011;51342;55.250;37.668;2022-07-10T12:09:34;4.53;;;2.80;;
45368;SDS011;51342;55.250;37.668;2022-07-10T12:12:09;4.93;;;3.03;;
45368;SDS011;51342;55.250;37.668;2022-07-10T12:14:41;4.70;;;2.70;;
45368;SDS011;51342;55.250;37.668;2022-07-10T12:17:12;5.60;;;2.80;;
45368;SDS011;51342;55.250;37.668;2022-07-10T12:19:44;4.95;;;3.25;;
45368;SDS011;51342;55.250;37.668;2022-07-10T12:22:17;4.13;;;3.35;;
45368;SDS011;51342;55.250;37.668;2022-07-10T12:24:48;7.85;;;3.70;;
45368;SDS011;51342;55.250;37.668;2022-07-10T12:27:38;6.18;;;2.90;;
45368;SDS011;51342;55.250;37.668;2022-07-10T12:30:11;6.15;;;3.25;;
45368;SDS011;51342;55.250;37.668;2022-07-10T12:32:42;5.43;;;3.00;;
45368;SDS011;51342;55.250;37.668;2022-07-10T12:35:17;3.72;;;3.00;;
45368;SDS011;51342;55.250;37.668;2022-07-10T12:37:51;6.07;;;3.45;;
45368;SDS011;51342;55.250;37.668;2022-07-10T12:40:29;6.60;;;3.38;;
45368;SDS011;51342;55.250;37.668;2022-07-10T12:43:02;6.38;;;3.95;;
45368;SDS011;51342;55.250;37.668;2022-07-10T12:45:35;15.60;;;6.93;;
45368;SDS011;51342;55.250;37.668;2022-07-10T12:48:06;4.93;;;3.78;;
45368;SDS011;51342;55.250;37.668;2022-07-10T12:50:37;5.18;;;3.45;;
45368;SDS011;51342;55.250;37.668;2022-07-10T12:53:10;4.80;;;3.20;;
45368;SDS011;51342;55.250;37.668;2022-07-10T12:55:42;4.40;;;2.80;;
45368;SDS011;51342;55.250;37.668;2022-07-10T12:58:14;5.15;;;3.53;;
45368;SDS011;51342;55.250;37.668;2022-07-10T13:00:46;5.10;;;4.10;;
45368;SDS011;51342;55.250;37.668;2022-07-10T13:03:21;4.97;;;3.53;;
45368;SDS011;51342;55.250;37.668;2022-07-10T13:05:55;5.25;;;3.75;;
45368;SDS011;51342;55.250;37.668;2022-07-10T13:08:28;7.00;;;3.50;;
45368;SDS011;51342;55.250;37.668;2022-07-10T13:11:00;4.90;;;3.30;;
45368;SDS011;51342;55.250;37.668;2022-07-10T13:13:32;6.13;;;3.45;;
45368;SDS011;51342;55.250;37.668;2022-07-10T13:16:03;7.10;;;3.40;;
45368;SDS011;51342;55.250;37.668;2022-07-10T13:18:35;5.70;;;3.20;;
45368;SDS011;51342;55.250;37.668;2022-07-10T13:21:06;4.70;;;2.83;;
45368;SDS011;51342;55.250;37.668;2022-07-10T13:23:38;9.90;;;3.78;;
45368;SDS011;51342;55.250;37.668;2022-07-10T13:26:09;6.55;;;3.38;;
45368;SDS011;51342;55.250;37.668;2022-07-10T13:28:41;4.97;;;3.20;;
45368;SDS011;51342;55.250;37.668;2022-07-10T13:31:12;6.38;;;3.20;;
45368;SDS011;51342;55.250;37.668;2022-07-10T13:33:44;7.95;;;3.25;;
45368;SDS011;51342;55.250;37.668;2022-07-10T13:36:15;6.63;;;3.10;;
45368;SDS011;51342;55.250;37.668;2022-07-10T13:41:39;6.47;;;3.55;;
45368;SDS011;51342;55.250;37.668;2022-07-10T13:44:11;6.28;;;4.18;;
45368;SDS011;51342;55.250;37.668;2022-07-10T13:46:42;13.15;;;6.28;;
45368;SDS011;51342;55.250;37.668;2022-07-10T13:49:14;10.65;;;4.00;;
45368;SDS011;51342;55.250;37.668;2022-07-10T13:51:45;8.60;;;3.20;;
45368;SDS011;51342;55.250;37.668;2022-07-10T13:54:17;6.25;;;2.95;;
45368;SDS011;51342;55.250;37.668;2022-07-10T13:56:48;10.95;;;4.90;;
45368;SDS011;51342;55.250;37.668;2022-07-10T13:59:20;7.78;;;2.63;;
45368;SDS011;51342;55.250;37.668;2022-07-10T14:01:51;5.55;;;3.08;;
45368;SDS011;51342;55.250;37.668;2022-07-10T14:04:22;7.50;;;3.42;;
45368;SDS011;51342;55.250;37.668;2022-07-10T14:06:55;7.90;;;3.50;;
45368;SDS011;51342;55.250;37.668;2022-07-10T14:09:27;5.45;;;2.95;;
45368;SDS011;51342;55.250;37.668;2022-07-10T14:11:59;6.93;;;2.47;;
45368;SDS011;51342;55.250;37.668;2022-07-10T14:14:31;7.90;;;2.50;;
45368;SDS011;51342;55.250;37.668;2022-07-10T14:17:03;5.50;;;2.22;;
45368;SDS011;51342;55.250;37.668;2022-07-10T14:19:35;4.78;;;2.50;;
45368;SDS011;51342;55.250;37.668;2022-07-10T14:22:06;4.47;;;2.58;;
45368;SDS011;51342;55.250;37.668;2022-07-10T14:24:38;3.90;;;2.38;;
45368;SDS011;51342;55.250;37.668;2022-07-10T14:27:10;5.40;;;3.13;;
45368;SDS011;51342;55.250;37.668;2022-07-10T14:29:41;4.00;;;2.63;;
45368;SDS011;51342;55.250;37.668;2022-07-10T14:32:13;5.50;;;2.72;;
45368;SDS011;51342;55.250;37.668;2022-07-10T14:34:44;6.28;;;2.80;;
45368;SDS011;51342;55.250;37.668;2022-07-10T14:37:16;5.05;;;2.90;;
45368;SDS011;51342;55.250;37.668;2022-07-10T14:39:48;7.57;;;3.38;;
45368;SDS011;51342;55.250;37.668;2022-07-10T14:42:20;5.75;;;3.50;;
45368;SDS011;51342;55.250;37.668;2022-07-10T14:44:51;6.85;;;3.80;;
45368;SDS011;51342;55.250;37.668;2022-07-10T14:47:22;7.43;;;3.88;;
45368;SDS011;51342;55.250;37.668;2022-07-10T14:49:54;6.50;;;3.50;;
45368;SDS011;51342;55.250;37.668;2022-07-10T14:52:25;8.07;;;3.05;;
45368;SDS011;51342;55.250;37.668;2022-07-10T14:55:00;7.25;;;3.00;;
45368;SDS011;51342;55.250;37.668;2022-07-10T14:57:33;4.45;;;3.33;;
45368;SDS011;51342;55.250;37.668;2022-07-10T15:00:04;7.45;;;3.50;;
45368;SDS011;51342;55.250;37.668;2022-07-10T15:02:36;5.75;;;3.47;;
45368;SDS011;51342;55.250;37.668;2022-07-10T15:05:08;5.28;;;3.45;;
45368;SDS011;51342;55.250;37.668;2022-07-10T15:07:39;5.40;;;3.55;;
45368;SDS011;51342;55.250;37.668;2022-07-10T15:10:11;6.30;;;3.60;;
45368;SDS011;51342;55.250;37.668;2022-07-10T15:12:43;9.63;;;4.57;;
45368;SDS011;51342;55.250;37.668;2022-07-10T15:15:15;7.95;;;4.28;;
45368;SDS011;51342;55.250;37.668;2022-07-10T15:17:47;7.90;;;6.15;;
45368;SDS011;51342;55.250;37.668;2022-07-10T15:20:18;10.98;;;6.63;;
45368;SDS011;51342;55.250;37.668;2022-07-10T15:22:50;6.38;;;5.78;;
45368;SDS011;51342;55.250;37.668;2022-07-10T15:25:21;8.02;;;6.03;;
45368;SDS011;51342;55.250;37.668;2022-07-10T15:27:53;7.07;;;5.85;;
45368;SDS011;51342;55.250;37.668;2022-07-10T15:30:24;7.10;;;5.72;;
45368;SDS011;51342;55.250;37.668;2022-07-10T15:32:56;6.35;;;5.10;;
45368;SDS011;51342;55.250;37.668;2022-07-10T15:35:27;6.55;;;5.80;;
45368;SDS011;51342;55.250;37.668;2022-07-10T15:37:59;7.50;;;6.47;;
45368;SDS011;51342;55.250;37.668;2022-07-10T15:40:31;8.65;;;7.45;;
45368;SDS011;51342;55.250;37.668;2022-07-10T15:43:02;8.30;;;6.93;;
45368;SDS011;51342;55.250;37.668;2022-07-10T15:45:34;7.90;;;6.80;;
45368;SDS011;51342;55.250;37.668;2022-07-10T15:48:08;8.68;;;7.35;;
45368;SDS011;51342;55.250;37.668;2022-07-10T15:50:45;8.68;;;6.15;;
45368;SDS011;51342;55.250;37.668;2022-07-10T15:53:17;11.90;;;7.35;;
45368;SDS011;51342;55.250;37.668;2022-07-10T15:55:49;9.32;;;8.05;;
45368;SDS011;51342;55.250;37.668;2022-07-10T15:58:20;9.30;;;7.28;;
45368;SDS011;51342;55.250;37.668;2022-07-10T16:00:52;9.00;;;6.75;;
45368;SDS011;51342;55.250;37.668;2022-07-10T16:03:23;8.82;;;7.10;;
45368;SDS011;51342;55.250;37.668;2022-07-10T16:05:58;7.90;;;7.05;;
45368;SDS011;51342;55.250;37.668;2022-07-10T16:08:29;9.32;;;6.45;;
45368;SDS011;51342;55.250;37.668;2022-07-10T16:11:01;7.25;;;6.00;;
45368;SDS011;51342;55.250;37.668;2022-07-10T16:13:33;10.57;;;6.75;;
45368;SDS011;51342;55.250;37.668;2022-07-10T16:16:04;8.43;;;6.65;;
45368;SDS011;51342;55.250;37.668;2022-07-10T16:18:36;8.30;;;6.95;;
45368;SDS011;51342;55.250;37.668;2022-07-10T16:21:08;9.10;;;7.57;;
45368;SDS011;51342;55.250;37.668;2022-07-10T16:23:40;8.52;;;6.82;;
45368;SDS011;51342;55.250;37.668;2022-07-10T16:26:14;9.40;;;7.10;;
45368;SDS011;51342;55.250;37.668;2022-07-10T16:28:47;14.25;;;6.95;;
45368;SDS011;51342;55.250;37.668;2022-07-10T16:31:21;8.07;;;7.07;;
45368;SDS011;51342;55.250;37.668;2022-07-10T16:33:53;10.23;;;7.97;;
45368;SDS011;51342;55.250;37.668;2022-07-10T16:36:25;11.57;;;10.40;;
45368;SDS011;51342;55.250;37.668;2022-07-10T16:38:56;9.80;;;8.80;;
45368;SDS011;51342;55.250;37.668;2022-07-10T16:41:28;9.43;;;8.57;;
45368;SDS011;51342;55.250;37.668;2022-07-10T16:43:59;9.10;;;7.60;;
45368;SDS011;51342;55.250;37.668;2022-07-10T16:46:31;7.45;;;6.70;;
45368;SDS011;51342;55.250;37.668;2022-07-10T16:49:03;7.38;;;6.60;;
45368;SDS011;51342;55.250;37.668;2022-07-10T16:51:36;6.55;;;5.68;;
45368;SDS011;51342;55.250;37.668;2022-07-10T16:54:07;37.75;;;34.13;;
45368;SDS011;51342;55.250;37.668;2022-07-10T16:56:38;23.48;;;21.27;;
45368;SDS011;51342;55.250;37.668;2022-07-10T16:59:11;14.95;;;13.55;;
45368;SDS011;51342;55.250;37.668;2022-07-10T17:01:43;14.13;;;12.82;;
45368;SDS011;51342;55.250;37.668;2022-07-10T17:04:14;21.60;;;19.40;;
45368;SDS011;51342;55.250;37.668;2022-07-10T17:07:06;14.68;;;13.05;;
45368;SDS011;51342;55.250;37.668;2022-07-10T17:09:38;15.05;;;12.82;;
45368;SDS011;51342;55.250;37.668;2022-07-10T17:12:10;21.27;;;19.02;;
45368;SDS011;51342;55.250;37.668;2022-07-10T17:14:41;12.65;;;11.45;;
45368;SDS011;51342;55.250;37.668;2022-07-10T17:17:13;9.13;;;8.23;;
45368;SDS011;51342;55.250;37.668;2022-07-10T17:19:44;9.10;;;7.50;;
45368;SDS011;51342;55.250;37.668;2022-07-10T17:22:16;7.40;;;6.30;;
45368;SDS011;51342;55.250;37.668;2022-07-10T17:24:47;6.95;;;6.30;;
45368;SDS011;51342;55.250;37.668;2022-07-10T17:27:19;12.57;;;7.18;;
45368;SDS011;51342;55.250;37.668;2022-07-10T17:29:51;8.13;;;6.47;;
45368;SDS011;51342;55.250;37.668;2022-07-10T17:32:23;10.30;;;6.93;;
45368;SDS011;51342;55.250;37.668;2022-07-10T17:34:54;8.07;;;6.60;;
45368;SDS011;51342;55.250;37.668;2022-07-10T17:37:26;8.23;;;7.38;;
45368;SDS011;51342;55.250;37.668;2022-07-10T17:39:57;10.10;;;7.22;;
45368;SDS011;51342;55.250;37.668;2022-07-10T17:42:29;8.18;;;6.93;;
45368;SDS011;51342;55.250;37.668;2022-07-10T17:45:00;8.88;;;6.38;;
45368;SDS011;51342;55.250;37.668;2022-07-10T17:47:31;8.23;;;6.88;;
45368;SDS011;51342;55.250;37.668;2022-07-10T17:50:03;8.77;;;6.63;;
45368;SDS011;51342;55.250;37.668;2022-07-10T17:52:35;8.73;;;7.18;;
45368;SDS011;51342;55.250;37.668;2022-07-10T17:55:06;9.63;;;7.13;;
45368;SDS011;51342;55.250;37.668;2022-07-10T17:57:39;8.00;;;6.82;;
45368;SDS011;51342;55.250;37.668;2022-07-10T18:00:10;8.70;;;6.82;;
45368;SDS011;51342;55.250;37.668;2022-07-10T18:02:45;8.65;;;6.43;;
45368;SDS011;51342;55.250;37.668;2022-07-10T18:05:16;8.73;;;7.75;;
45368;SDS011;51342;55.250;37.668;2022-07-10T18:07:48;7.88;;;6.53;;
45368;SDS011;51342;55.250;37.668;2022-07-10T18:10:20;9.18;;;6.60;;
45368;SDS011;51342;55.250;37.668;2022-07-10T18:12:52;8.43;;;7.32;;
45368;SDS011;51342;55.250;37.668;2022-07-10T18:15:23;7.43;;;6.78;;
45368;SDS011;51342;55.250;37.668;2022-07-10T18:17:55;8.98;;;7.82;;
45368;SDS011;51342;55.250;37.668;2022-07-10T18:20:26;11.98;;;7.85;;
45368;SDS011;51342;55.250;37.668;2022-07-10T18:22:59;11.50;;;7.57;;
45368;SDS011;51342;55.250;37.668;2022-07-10T18:25:32;9.82;;;7.72;;
45368;SDS011;51342;55.250;37.668;2022-07-10T18:28:04;10.98;;;7.20;;
45368;SDS011;51342;55.250;37.668;2022-07-10T18:30:36;10.60;;;8.93;;
45368;SDS011;51342;55.250;37.668;2022-07-10T18:33:07;8.52;;;7.32;;
45368;SDS011;51342;55.250;37.668;2022-07-10T18:35:57;9.13;;;7.72;;
45368;SDS011;51342;55.250;37.668;2022-07-10T18:38:28;9.52;;;7.75;;
45368;SDS011;51342;55.250;37.668;2022-07-10T18:41:00;9.35;;;7.97;;
45368;SDS011;51342;55.250;37.668;2022-07-10T18:43:33;9.50;;;7.03;;
45368;SDS011;51342;55.250;37.668;2022-07-10T18:46:06;9.98;;;7.53;;
45368;SDS011;51342;55.250;37.668;2022-07-10T18:48:37;9.75;;;7.80;;
45368;SDS011;51342;55.250;37.668;2022-07-10T18:51:09;10.57;;;7.65;;
45368;SDS011;51342;55.250;37.668;2022-07-10T18:53:40;9.02;;;7.68;;
45368;SDS011;51342;55.250;37.668;2022-07-10T18:56:12;7.10;;;6.40;;
45368;SDS011;51342;55.250;37.668;2022-07-10T18:58:44;11.50;;;7.20;;
45368;SDS011;51342;55.250;37.668;2022-07-10T19:01:16;10.90;;;6.63;;
45368;SDS011;51342;55.250;37.668;2022-07-10T19:03:51;8.77;;;7.38;;
45368;SDS011;51342;55.250;37.668;2022-07-10T19:06:23;10.52;;;8.23;;
45368;SDS011;51342;55.250;37.668;2022-07-10T19:08:54;9.57;;;7.35;;
45368;SDS011;51342;55.250;37.668;2022-07-10T19:11:26;8.27;;;6.85;;
45368;SDS011;51342;55.250;37.668;2022-07-10T19:13:58;10.30;;;6.70;;
45368;SDS011;51342;55.250;37.668;2022-07-10T19:16:29;13.93;;;7.53;;
45368;SDS011;51342;55.250;37.668;2022-07-10T19:19:00;8.68;;;7.22;;
45368;SDS011;51342;55.250;37.668;2022-07-10T19:21:32;10.40;;;7.20;;
45368;SDS011;51342;55.250;37.668;2022-07-10T19:24:04;9.63;;;8.27;;
45368;SDS011;51342;55.250;37.668;2022-07-10T19:26:36;8.10;;;6.72;;
45368;SDS011;51342;55.250;37.668;2022-07-10T19:29:08;9.93;;;7.85;;
45368;SDS011;51342;55.250;37.668;2022-07-10T19:31:40;8.25;;;7.45;;
45368;SDS011;51342;55.250;37.668;2022-07-10T19:34:11;10.48;;;8.07;;
45368;SDS011;51342;55.250;37.668;2022-07-10T19:36:43;10.85;;;7.38;;
45368;SDS011;51342;55.250;37.668;2022-07-10T19:39:14;9.75;;;7.43;;
45368;SDS011;51342;55.250;37.668;2022-07-10T19:41:48;8.55;;;7.65;;
45368;SDS011;51342;55.250;37.668;2022-07-10T19:44:20;11.70;;;8.38;;
45368;SDS011;51342;55.250;37.668;2022-07-10T19:46:51;11.23;;;8.40;;
45368;SDS011;51342;55.250;37.668;2022-07-10T19:49:25;9.95;;;8.35;;
45368;SDS011;51342;55.250;37.668;2022-07-10T19:51:56;8.70;;;7.88;;
45368;SDS011;51342;55.250;37.668;2022-07-10T19:54:28;10.63;;;8.30;;
45368;SDS011;51342;55.250;37.668;2022-07-10T19:56:59;13.85;;;9.27;;
45368;SDS011;51342;55.250;37.668;2022-07-10T19:59:31;9.32;;;7.75;;
45368;SDS011;51342;55.250;37.668;2022-07-10T20:02:02;10.80;;;8.68;;
45368;SDS011;51342;55.250;37.668;2022-07-10T20:04:35;10.05;;;8.38;;
45368;SDS011;51342;55.250;37.668;2022-07-10T20:07:08;10.63;;;8.77;;
45368;SDS011;51342;55.250;37.668;2022-07-10T20:09:39;10.45;;;8.85;;
45368;SDS011;51342;55.250;37.668;2022-07-10T20:12:11;10.52;;;9.35;;
45368;SDS011;51342;55.250;37.668;2022-07-10T20:14:42;12.48;;;9.65;;
45368;SDS011;51342;55.250;37.668;2022-07-10T20:17:14;15.95;;;10.75;;
45368;SDS011;51342;55.250;37.668;2022-07-10T20:19:46;14.60;;;11.75;;
45368;SDS011;51342;55.250;37.668;2022-07-10T20:22:18;14.70;;;12.63;;
45368;SDS011;51342;55.250;37.668;2022-07-10T20:24:49;14.23;;;12.60;;
45368;SDS011;51342;55.250;37.668;2022-07-10T20:27:20;15.00;;;12.52;;
45368;SDS011;51342;55.250;37.668;2022-07-10T20:29:52;16.20;;;13.50;;
45368;SDS011;51342;55.250;37.668;2022-07-10T20:32:23;15.30;;;12.15;;
45368;SDS011;51342;55.250;37.668;2022-07-10T20:34:55;14.57;;;12.98;;
45368;SDS011;51342;55.250;37.668;2022-07-10T20:37:26;14.25;;;12.80;;
45368;SDS011;51342;55.250;37.668;2022-07-10T20:40:16;14.85;;;12.98;;
45368;SDS011;51342;55.250;37.668;2022-07-10T20:42:48;15.00;;;12.73;;
45368;SDS011;51342;55.250;37.668;2022-07-10T20:45:20;17.50;;;13.88;;
45368;SDS011;51342;55.250;37.668;2022-07-10T20:47:51;19.50;;;13.93;;
45368;SDS011;51342;55.250;37.668;2022-07-10T20:50:23;15.88;;;13.05;;
45368;SDS011;51342;55.250;37.668;2022-07-10T20:52:54;12.50;;;11.20;;
45368;SDS011;51342;55.250;37.668;2022-07-10T20:55:27;13.27;;;10.95;;
45368;SDS011;51342;55.250;37.668;2022-07-10T20:57:58;12.20;;;10.98;;
45368;SDS011;51342;55.250;37.668;2022-07-10T21:00:31;13.23;;;11.50;;
45368;SDS011;51342;55.250;37.668;2022-07-10T21:03:03;11.13;;;10.13;;
45368;SDS011;51342;55.250;37.668;2022-07-10T21:05:34;10.68;;;9.68;;
45368;SDS011;51342;55.250;37.668;2022-07-10T21:08:06;12.20;;;10.48;;
45368;SDS011;51342;55.250;37.668;2022-07-10T21:10:38;11.82;;;9.98;;
45368;SDS011;51342;55.250;37.668;2022-07-10T21:13:12;11.88;;;10.43;;
45368;SDS011;51342;55.250;37.668;2022-07-10T21:15:45;12.25;;;10.98;;
45368;SDS011;51342;55.250;37.668;2022-07-10T21:18:16;11.38;;;10.05;;
45368;SDS011;51342;55.250;37.668;2022-07-10T21:20:48;12.63;;;10.55;;
45368;SDS011;51342;55.250;37.668;2022-07-10T21:23:20;12.00;;;10.88;;
45368;SDS011;51342;55.250;37.668;2022-07-10T21:25:51;11.40;;;9.63;;
45368;SDS011;51342;55.250;37.668;2022-07-10T21:28:23;12.23;;;11.02;;
45368;SDS011;51342;55.250;37.668;2022-07-10T21:30:54;11.63;;;10.52;;
45368;SDS011;51342;55.250;37.668;2022-07-10T21:33:26;12.00;;;10.52;;
45368;SDS011;51342;55.250;37.668;2022-07-10T21:35:57;14.20;;;11.25;;
45368;SDS011;51342;55.250;37.668;2022-07-10T21:38:29;11.68;;;10.40;;
45368;SDS011;51342;55.250;37.668;2022-07-10T21:41:00;11.68;;;10.52;;
45368;SDS011;51342;55.250;37.668;2022-07-10T21:43:32;13.05;;;11.30;;
45368;SDS011;51342;55.250;37.668;2022-07-10T21:46:03;14.48;;;11.85;;
45368;SDS011;51342;55.250;37.668;2022-07-10T21:48:36;11.43;;;10.10;;
45368;SDS011;51342;55.250;37.668;2022-07-10T21:51:07;13.55;;;10.52;;
45368;SDS011;51342;55.250;37.668;2022-07-10T21:53:39;10.35;;;9.15;;
45368;SDS011;51342;55.250;37.668;2022-07-10T21:56:11;12.27;;;11.07;;
45368;SDS011;51342;55.250;37.668;2022-07-10T21:58:42;11.20;;;10.20;;
45368;SDS011;51342;55.250;37.668;2022-07-10T22:01:13;12.35;;;10.82;;
45368;SDS011;51342;55.250;37.668;2022-07-10T22:03:45;12.95;;;10.50;;
45368;SDS011;51342;55.250;37.668;2022-07-10T22:06:16;12.48;;;9.85;;
45368;SDS011;51342;55.250;37.668;2022-07-10T22:08:48;13.05;;;11.15;;
45368;SDS011;51342;55.250;37.668;2022-07-10T22:11:19;15.15;;;10.40;;
45368;SDS011;51342;55.250;37.668;2022-07-10T22:13:51;13.15;;;10.35;;
45368;SDS011;51342;55.250;37.668;2022-07-10T22:16:23;12.10;;;10.93;;
45368;SDS011;51342;55.250;37.668;2022-07-10T22:18:55;13.45;;;12.05;;
45368;SDS011;51342;55.250;37.668;2022-07-10T22:21:26;13.10;;;11.95;;
45368;SDS011;51342;55.250;37.668;2022-07-10T22:23:58;12.48;;;11.27;;
45368;SDS011;51342;55.250;37.668;2022-07-10T22:26:29;13.27;;;11.98;;
45368;SDS011;51342;55.250;37.668;2022-07-10T22:29:01;11.55;;;10.35;;
45368;SDS011;51342;55.250;37.668;2022-07-10T22:31:33;12.23;;;11.07;;
45368;SDS011;51342;55.250;37.668;2022-07-10T22:34:05;12.63;;;10.85;;
45368;SDS011;51342;55.250;37.668;2022-07-10T22:36:38;12.23;;;10.85;;
45368;SDS011;51342;55.250;37.668;2022-07-10T22:39:09;11.65;;;10.55;;
45368;SDS011;51342;55.250;37.668;2022-07-10T22:41:41;12.85;;;11.57;;
45368;SDS011;51342;55.250;37.668;2022-07-10T22:44:12;12.18;;;11.05;;
45368;SDS011;51342;55.250;37.668;2022-07-10T22:46:44;12.00;;;10.57;;
45368;SDS011;51342;55.250;37.668;2022-07-10T22:49:15;13.07;;;11.70;;
45368;SDS011;51342;55.250;37.668;2022-07-10T22:51:47;11.95;;;10.85;;
45368;SDS011;51342;55.250;37.668;2022-07-10T22:54:18;12.85;;;10.82;;
45368;SDS011;51342;55.250;37.668;2022-07-10T22:56:49;12.48;;;10.27;;
45368;SDS011;51342;55.250;37.668;2022-07-10T22:59:21;16.02;;;11.02;;
45368;SDS011;51342;55.250;37.668;2022-07-10T23:01:52;11.60;;;10.43;;
45368;SDS011;51342;55.250;37.668;2022-07-10T23:04:24;11.95;;;10.20;;
45368;SDS011;51342;55.250;37.668;2022-07-10T23:06:55;13.93;;;10.48;;
45368;SDS011;51342;55.250;37.668;2022-07-10T23:09:27;12.90;;;11.02;;
45368;SDS011;51342;55.250;37.668;2022-07-10T23:11:58;12.27;;;10.77;;
45368;SDS011;51342;55.250;37.668;2022-07-10T23:14:30;13.13;;;11.23;;
45368;SDS011;51342;55.250;37.668;2022-07-10T23:17:01;12.35;;;11.13;;
45368;SDS011;51342;55.250;37.668;2022-07-10T23:19:33;14.55;;;11.77;;
45368;SDS011;51342;55.250;37.668;2022-07-10T23:22:04;13.00;;;11.65;;
45368;SDS011;51342;55.250;37.668;2022-07-10T23:24:36;12.75;;;11.35;;
45368;SDS011;51342;55.250;37.668;2022-07-10T23:27:07;12.35;;;11.07;;
45368;SDS011;51342;55.250;37.668;2022-07-10T23:29:38;12.88;;;11.52;;
45368;SDS011;51342;55.250;37.668;2022-07-10T23:32:12;13.15;;;11.75;;
45368;SDS011;51342;55.250;37.668;2022-07-10T23:34:43;17.33;;;11.93;;
45368;SDS011;51342;55.250;37.668;2022-07-10T23:37:15;13.60;;;11.05;;
45368;SDS011;51342;55.250;37.668;2022-07-10T23:39:47;12.27;;;10.57;;
45368;SDS011;51342;55.250;37.668;2022-07-10T23:42:18;12.98;;;11.85;;
45368;SDS011;51342;55.250;37.668;2022-07-10T23:44:50;10.68;;;9.68;;
45368;SDS011;51342;55.250;37.668;2022-07-10T23:47:21;11.35;;;10.15;;
45368;SDS011;51342;55.250;37.668;2022-07-10T23:49:53;11.07;;;9.57;;
45368;SDS011;51342;55.250;37.668;2022-07-10T23:52:40;12.27;;;9.55;;
45368;SDS011;51342;55.250;37.668;2022-07-10T23:55:13;11.18;;;10.05;;
45368;SDS011;51342;55.250;37.668;2022-07-10T23:57:45;13.48;;;9.90;;
